createdAt,value
2018-09-19T00:01:29.000Z,21.45
2018-09-19T00:03:58.354Z,21.35
2018-09-19T00:06:27.778Z,21.36
2018-09-19T00:08:57.146Z,21.32
2018-09-19T00:11:26.605Z,21.35
2018-09-19T00:13:55.992Z,21.31
2018-09-19T00:16:25.401Z,21.31
2018-09-19T00:18:54.777Z,21.30
2018-09-19T00:21:24.290Z,21.25
2018-09-19T00:23:53.846Z,21.19
2018-09-19T00:26:23.313Z,21.12
2018-09-19T00:28:52.671Z,21.09
2018-09-19T00:31:22.132Z,21.07
2018-09-19T00:33:51.549Z,21.05
2018-09-19T00:36:21.063Z,20.97
2018-09-19T00:38:50.424Z,20.93
2018-09-19T00:41:19.827Z,20.90
2018-09-19T00:43:49.206Z,20.87
2018-09-19T00:46:18.646Z,20.80
2018-09-19T00:48:48.011Z,20.79
2018-09-19T00:51:17.457Z,20.83
2018-09-19T00:53:46.871Z,20.79
2018-09-19T00:56:16.445Z,20.79
2018-09-19T00:58:45.839Z,20.70
2018-09-19T01:01:15.219Z,20.67
2018-09-19T01:03:44.666Z,20.62
2018-09-19T01:06:14.052Z,20.56
2018-09-19T01:08:43.471Z,20.52
2018-09-19T01:11:12.838Z,20.63
2018-09-19T01:13:42.271Z,20.55
2018-09-19T01:16:11.642Z,20.53
2018-09-19T01:18:41.070Z,20.55
2018-09-19T01:21:10.449Z,20.50
2018-09-19T01:23:39.817Z,20.47
2018-09-19T01:26:09.215Z,20.38
2018-09-19T01:28:38.581Z,20.30
2018-09-19T01:31:08.097Z,20.33
2018-09-19T01:33:37.472Z,20.26
2018-09-19T01:36:06.845Z,20.23
2018-09-19T01:38:36.298Z,20.20
2018-09-19T01:41:05.648Z,20.07
2018-09-19T01:43:35.107Z,20.04
2018-09-19T01:46:04.481Z,20.01
2018-09-19T01:48:33.906Z,20.01
2018-09-19T01:51:03.292Z,19.97
2018-09-19T01:53:32.722Z,19.97
2018-09-19T01:56:02.107Z,19.88
2018-09-19T01:58:31.521Z,19.87
2018-09-19T02:01:00.881Z,19.79
2018-09-19T02:03:30.328Z,19.75
2018-09-19T02:05:59.702Z,19.68
2018-09-19T02:08:29.173Z,19.73
2018-09-19T02:10:58.747Z,19.68
2018-09-19T02:13:28.170Z,19.61
2018-09-19T02:15:57.541Z,19.60
2018-09-19T02:18:26.962Z,19.62
2018-09-19T02:20:56.327Z,19.40
2018-09-19T02:23:25.703Z,19.36
2018-09-19T02:25:55.071Z,19.20
2018-09-19T02:28:24.474Z,19.32
2018-09-19T02:30:53.905Z,19.30
2018-09-19T02:33:23.369Z,19.34
2018-09-19T02:35:52.744Z,19.57
2018-09-19T02:38:22.159Z,19.38
2018-09-19T02:40:51.522Z,19.37
2018-09-19T02:43:20.888Z,19.35
2018-09-19T02:45:50.260Z,19.30
2018-09-19T02:48:19.670Z,19.32
2018-09-19T02:50:49.036Z,19.32
2018-09-19T02:53:18.490Z,19.27
2018-09-19T02:55:47.858Z,19.19
2018-09-19T02:58:17.271Z,19.11
2018-09-19T03:00:46.667Z,18.96
2018-09-19T03:03:16.089Z,18.86
2018-09-19T03:05:45.467Z,18.76
2018-09-19T03:08:14.917Z,18.59
2018-09-19T03:10:44.307Z,18.55
2018-09-19T03:13:13.689Z,18.41
2018-09-19T03:15:43.056Z,18.31
2018-09-19T03:18:12.515Z,18.26
2018-09-19T03:20:41.874Z,18.30
2018-09-19T03:23:11.315Z,18.32
2018-09-19T03:25:40.681Z,18.32
2018-09-19T03:28:10.458Z,18.26
2018-09-19T03:30:39.838Z,18.05
2018-09-19T03:33:09.198Z,18.06
2018-09-19T03:35:38.573Z,18.15
2018-09-19T03:38:08.020Z,18.36
2018-09-19T03:40:37.402Z,18.39
2018-09-19T03:43:06.863Z,18.46
2018-09-19T03:45:36.238Z,18.47
2018-09-19T03:48:05.634Z,18.55
2018-09-19T03:50:35.016Z,18.56
2018-09-19T03:53:04.430Z,18.55
2018-09-19T03:55:33.828Z,18.46
2018-09-19T03:58:03.245Z,18.55
2018-09-19T04:00:32.603Z,18.59
2018-09-19T04:03:03.102Z,18.56
2018-09-19T04:05:32.508Z,18.51
2018-09-19T04:08:02.035Z,18.43
2018-09-19T04:10:31.375Z,18.43
2018-09-19T04:13:00.738Z,18.40
2018-09-19T04:15:30.221Z,18.42
2018-09-19T04:17:59.689Z,18.47
2018-09-19T04:20:28.991Z,18.39
2018-09-19T04:22:58.350Z,18.43
2018-09-19T04:25:27.776Z,18.34
2018-09-19T04:27:57.239Z,18.25
2018-09-19T04:30:26.615Z,18.36
2018-09-19T04:32:56.017Z,18.39
2018-09-19T04:35:25.391Z,18.36
2018-09-19T04:37:54.802Z,18.40
2018-09-19T04:40:24.175Z,18.36
2018-09-19T04:42:53.614Z,18.32
2018-09-19T04:45:23.005Z,18.38
2018-09-19T04:47:52.419Z,18.55
2018-09-19T04:50:21.787Z,18.36
2018-09-19T04:52:51.236Z,18.32
2018-09-19T04:55:20.620Z,18.32
2018-09-19T04:57:50.042Z,18.30
2018-09-19T05:00:19.421Z,18.28
2018-09-19T05:02:48.864Z,18.29
2018-09-19T05:05:18.232Z,18.31
2018-09-19T05:07:47.648Z,18.09
2018-09-19T05:10:17.006Z,17.89
2018-09-19T05:12:46.457Z,18.08
2018-09-19T05:15:15.831Z,18.47
2018-09-19T05:17:45.249Z,18.44
2018-09-19T05:20:14.618Z,18.43
2018-09-19T05:22:44.047Z,18.50
2018-09-19T05:25:13.411Z,18.50
2018-09-19T05:27:42.938Z,18.61
2018-09-19T05:30:12.293Z,18.68
2018-09-19T05:32:41.770Z,18.70
2018-09-19T05:35:11.125Z,18.68
2018-09-19T05:37:40.491Z,18.71
2018-09-19T05:40:09.838Z,18.72
2018-09-19T05:42:39.307Z,18.68
2018-09-19T05:45:08.627Z,18.58
2018-09-19T05:47:38.100Z,18.63
2018-09-19T05:50:07.455Z,18.31
2018-09-19T05:52:36.875Z,18.34
2018-09-19T05:55:06.242Z,18.53
2018-09-19T05:57:35.683Z,18.52
2018-09-19T06:00:05.538Z,18.67
2018-09-19T06:02:35.015Z,18.78
2018-09-19T06:05:04.452Z,18.78
2018-09-19T06:07:33.824Z,18.71
2018-09-19T06:10:03.202Z,18.60
2018-09-19T06:12:32.615Z,18.46
2018-09-19T06:15:01.984Z,18.58
2018-09-19T06:17:31.418Z,18.72
2018-09-19T06:20:00.813Z,18.47
2018-09-19T06:22:30.236Z,18.46
2018-09-19T06:24:59.627Z,18.52
2018-09-19T06:27:29.030Z,18.26
2018-09-19T06:29:58.394Z,18.26
2018-09-19T06:32:27.860Z,18.44
2018-09-19T06:34:57.225Z,18.48
2018-09-19T06:37:26.639Z,18.40
2018-09-19T06:39:56.027Z,18.18
2018-09-19T06:42:25.442Z,18.38
2018-09-19T06:44:54.825Z,18.41
2018-09-19T06:47:24.203Z,18.49
2018-09-19T06:49:53.593Z,18.50
2018-09-19T06:52:23.212Z,18.30
2018-09-19T06:54:52.711Z,18.05
2018-09-19T06:57:22.088Z,18.03
2018-09-19T06:59:51.521Z,18.10
2018-09-19T07:02:20.862Z,17.96
2018-09-19T07:04:50.523Z,17.83
2018-09-19T07:07:19.896Z,17.81
2018-09-19T07:09:49.308Z,17.75
2018-09-19T07:12:18.677Z,17.74
2018-09-19T07:14:48.089Z,17.78
2018-09-19T07:17:18.028Z,17.78
2018-09-19T07:19:47.410Z,17.84
2018-09-19T07:22:16.783Z,17.82
2018-09-19T07:24:46.264Z,17.88
2018-09-19T07:27:15.713Z,17.92
2018-09-19T07:29:45.083Z,17.99
2018-09-19T07:32:14.564Z,18.03
2018-09-19T07:34:43.915Z,18.06
2018-09-19T07:37:13.329Z,18.06
2018-09-19T07:39:42.671Z,18.03
2018-09-19T07:42:12.130Z,18.09
2018-09-19T07:44:41.537Z,18.15
2018-09-19T07:49:46.041Z,18.24
2018-09-19T07:52:15.532Z,18.38
2018-09-19T07:54:44.919Z,18.36
2018-09-19T07:57:14.300Z,18.37
2018-09-19T07:59:43.682Z,18.51
2018-09-19T08:02:13.100Z,18.62
2018-09-19T08:04:42.479Z,18.89
2018-09-19T08:07:11.896Z,19.06
2018-09-19T08:09:41.286Z,19.30
2018-09-19T08:12:10.728Z,19.35
2018-09-19T08:14:40.086Z,19.81
2018-09-19T08:17:09.666Z,20.16
2018-09-19T08:19:39.164Z,20.36
2018-09-19T08:22:08.628Z,20.48
2018-09-19T08:24:37.990Z,20.65
2018-09-19T08:27:07.448Z,20.91
2018-09-19T08:29:36.836Z,21.11
2018-09-19T08:32:07.265Z,21.09
2018-09-19T08:34:36.620Z,21.23
2018-09-19T08:37:06.070Z,21.37
2018-09-19T08:39:35.445Z,21.70
2018-09-19T08:42:04.884Z,21.89
2018-09-19T08:44:34.226Z,21.97
2018-09-19T08:47:03.686Z,22.05
2018-09-19T08:49:33.058Z,21.94
2018-09-19T08:52:02.480Z,22.08
2018-09-19T08:54:31.856Z,22.30
2018-09-19T08:57:01.242Z,22.37
2018-09-19T08:59:30.599Z,22.58
2018-09-19T09:01:59.965Z,22.72
2018-09-19T09:04:29.313Z,23.00
2018-09-19T09:06:58.785Z,23.13
2018-09-19T09:09:28.231Z,23.42
2018-09-19T09:11:57.602Z,23.64
2018-09-19T09:14:26.989Z,23.70
2018-09-19T09:16:56.382Z,23.52
2018-09-19T09:19:25.730Z,23.98
2018-09-19T09:21:55.207Z,23.18
2018-09-19T09:24:24.571Z,23.48
2018-09-19T09:26:54.063Z,23.31
2018-09-19T09:29:23.383Z,23.90
2018-09-19T09:31:52.818Z,24.07
2018-09-19T09:34:22.266Z,24.25
2018-09-19T09:36:51.931Z,24.20
2018-09-19T09:39:21.263Z,23.96
2018-09-19T09:41:50.986Z,24.36
2018-09-19T09:44:20.360Z,24.08
2018-09-19T09:46:49.764Z,24.55
2018-09-19T09:49:19.150Z,24.67
2018-09-19T09:51:48.595Z,25.09
2018-09-19T09:54:17.961Z,25.19
2018-09-19T09:56:47.356Z,24.72
2018-09-19T09:59:16.714Z,24.96
2018-09-19T10:01:46.307Z,24.92
2018-09-19T10:04:15.673Z,25.71
2018-09-19T10:06:45.068Z,25.32
2018-09-19T10:09:14.434Z,25.62
2018-09-19T10:11:43.898Z,25.78
2018-09-19T10:14:13.253Z,25.81
2018-09-19T10:16:42.684Z,25.84
2018-09-19T10:19:12.059Z,25.93
2018-09-19T10:21:41.531Z,26.10
2018-09-19T10:24:10.879Z,25.84
2018-09-19T10:26:40.278Z,26.06
2018-09-19T10:29:09.651Z,26.44
2018-09-19T10:31:39.107Z,26.03
2018-09-19T10:34:08.467Z,25.95
2018-09-19T10:36:37.975Z,25.95
2018-09-19T10:39:08.203Z,26.16
2018-09-19T10:41:37.625Z,26.05
2018-09-19T10:44:07.020Z,26.10
2018-09-19T10:46:36.430Z,26.10
2018-09-19T10:49:05.808Z,26.47
2018-09-19T10:51:35.263Z,26.91
2018-09-19T10:54:04.616Z,27.47
2018-09-19T10:56:34.036Z,27.53
2018-09-19T10:59:03.429Z,27.45
2018-09-19T11:01:32.847Z,27.73
2018-09-19T11:04:02.401Z,28.25
2018-09-19T11:06:31.863Z,28.20
2018-09-19T11:09:01.272Z,28.87
2018-09-19T11:11:30.650Z,28.24
2018-09-19T11:14:00.037Z,28.90
2018-09-19T11:16:29.460Z,27.27
2018-09-19T11:18:58.843Z,27.49
2018-09-19T11:21:28.278Z,28.30
2018-09-19T11:23:57.648Z,27.93
2018-09-19T11:26:27.118Z,27.92
2018-09-19T11:28:56.472Z,27.37
2018-09-19T11:31:25.874Z,28.89
2018-09-19T11:33:55.246Z,28.93
2018-09-19T11:36:24.707Z,28.77
2018-09-19T11:38:54.072Z,28.38
2018-09-19T11:41:23.519Z,28.74
2018-09-19T11:43:52.887Z,29.51
2018-09-19T11:46:22.305Z,29.83
2018-09-19T11:48:51.681Z,28.92
2018-09-19T11:51:21.105Z,29.56
2018-09-19T11:53:50.500Z,29.00
2018-09-19T11:56:19.914Z,28.89
2018-09-19T11:58:49.275Z,28.84
2018-09-19T12:01:18.715Z,29.47
2018-09-19T12:03:48.085Z,29.53
2018-09-19T12:06:17.510Z,28.96
2018-09-19T12:08:46.876Z,30.57
2018-09-19T12:11:16.315Z,29.51
2018-09-19T12:13:45.679Z,29.91
2018-09-19T12:16:15.138Z,30.24
2018-09-19T12:18:44.505Z,28.56
2018-09-19T12:21:13.956Z,28.88
2018-09-19T12:23:43.306Z,29.78
2018-09-19T12:26:12.720Z,28.96
2018-09-19T12:28:42.136Z,29.44
2018-09-19T12:31:11.503Z,29.67
2018-09-19T12:33:40.961Z,29.61
2018-09-19T12:36:10.315Z,29.99
2018-09-19T12:38:39.742Z,29.25
2018-09-19T12:41:09.115Z,30.18
2018-09-19T12:43:38.548Z,29.76
2018-09-19T12:46:08.002Z,29.74
2018-09-19T12:48:37.465Z,30.39
2018-09-19T12:51:06.875Z,29.93
2018-09-19T12:53:36.255Z,29.93
2018-09-19T12:56:05.658Z,30.04
2018-09-19T12:58:35.071Z,30.01
2018-09-19T13:01:04.430Z,30.51
2018-09-19T13:03:33.874Z,31.64
2018-09-19T13:06:03.238Z,31.34
2018-09-19T13:08:32.722Z,31.24
2018-09-19T13:11:02.236Z,30.76
2018-09-19T13:13:31.694Z,29.96
2018-09-19T13:16:01.243Z,30.50
2018-09-19T13:18:30.702Z,30.07
2018-09-19T13:21:00.057Z,30.45
2018-09-19T13:23:29.521Z,31.52
2018-09-19T13:25:58.876Z,30.16
2018-09-19T13:28:28.314Z,29.95
2018-09-19T13:30:57.704Z,29.67
2018-09-19T13:33:27.119Z,30.51
2018-09-19T13:35:56.532Z,30.44
2018-09-19T13:38:25.934Z,30.45
2018-09-19T13:40:55.459Z,30.05
2018-09-19T13:43:24.850Z,31.26
2018-09-19T13:45:54.211Z,31.09
2018-09-19T13:48:23.652Z,29.78
2018-09-19T13:51:07.206Z,29.99
2018-09-19T13:53:36.582Z,30.62
2018-09-19T13:56:05.982Z,30.88
2018-09-19T13:58:35.349Z,30.81
2018-09-19T14:01:04.762Z,30.84
2018-09-19T14:03:34.140Z,31.36
2018-09-19T14:06:03.594Z,30.84
2018-09-19T14:08:32.981Z,29.20
2018-09-19T14:11:02.389Z,28.23
2018-09-19T14:13:31.787Z,29.83
2018-09-19T14:16:01.207Z,30.48
2018-09-19T14:18:30.615Z,29.62
2018-09-19T14:21:00.011Z,30.35
2018-09-19T14:23:29.436Z,30.37
2018-09-19T14:25:58.818Z,30.53
2018-09-19T14:28:28.286Z,31.02
2018-09-19T14:30:57.563Z,30.00
2018-09-19T14:33:27.015Z,30.31
2018-09-19T14:35:56.470Z,31.52
2018-09-19T14:38:25.807Z,31.14
2018-09-19T14:40:55.167Z,31.01
2018-09-19T14:43:24.663Z,31.89
2018-09-19T14:45:54.022Z,32.00
2018-09-19T14:48:23.493Z,31.80
2018-09-19T14:50:52.810Z,31.66
2018-09-19T14:53:22.232Z,30.90
2018-09-19T14:55:51.623Z,31.99
2018-09-19T14:58:21.055Z,32.57
2018-09-19T15:00:50.411Z,31.09
2018-09-19T15:03:19.876Z,31.02
2018-09-19T15:05:49.502Z,31.68
2018-09-19T15:08:18.977Z,30.08
2018-09-19T15:10:48.345Z,30.86
2018-09-19T15:13:17.796Z,30.06
2018-09-19T15:15:47.162Z,31.16
2018-09-19T15:18:16.571Z,28.83
2018-09-19T15:20:45.952Z,30.46
2018-09-19T15:23:15.434Z,30.40
2018-09-19T15:25:44.822Z,31.54
2018-09-19T15:28:14.314Z,30.59
2018-09-19T15:30:43.686Z,30.88
2018-09-19T15:33:13.094Z,30.29
2018-09-19T15:35:42.458Z,30.59
2018-09-19T15:38:11.899Z,29.83
2018-09-19T15:40:41.289Z,30.04
2018-09-19T15:43:10.723Z,30.65
2018-09-19T15:45:40.071Z,31.01
2018-09-19T15:48:09.495Z,30.39
2018-09-19T15:50:38.880Z,30.37
2018-09-19T15:53:08.302Z,30.26
2018-09-19T15:55:37.814Z,30.14
2018-09-19T15:58:07.223Z,29.89
2018-09-19T16:00:36.606Z,30.28
2018-09-19T16:03:05.982Z,29.71
2018-09-19T16:05:35.335Z,29.42
2018-09-19T16:08:04.739Z,30.39
2018-09-19T16:10:34.101Z,30.08
2018-09-19T16:13:03.495Z,29.83
2018-09-19T16:15:32.868Z,28.70
2018-09-19T16:18:02.356Z,28.47
2018-09-19T16:20:31.710Z,28.07
2018-09-19T16:23:01.141Z,28.08
2018-09-19T16:25:30.510Z,27.83
2018-09-19T16:27:59.962Z,28.04
2018-09-19T16:30:29.335Z,27.94
2018-09-19T16:32:58.781Z,27.77
2018-09-19T16:35:28.134Z,27.71
2018-09-19T16:37:57.633Z,27.55
2018-09-19T16:40:26.954Z,27.45
2018-09-19T16:42:56.358Z,27.37
2018-09-19T16:45:25.969Z,27.30
2018-09-19T16:47:55.403Z,27.24
2018-09-19T16:50:24.755Z,27.25
2018-09-19T16:52:54.211Z,27.16
2018-09-19T16:55:23.603Z,27.05
2018-09-19T16:57:52.986Z,26.96
2018-09-19T17:00:22.414Z,26.85
2018-09-19T17:02:51.785Z,26.78
2018-09-19T17:05:21.521Z,26.63
2018-09-19T17:07:51.765Z,26.57
2018-09-19T17:10:21.141Z,26.51
2018-09-19T17:12:50.936Z,26.31
2018-09-19T17:15:20.381Z,26.22
2018-09-19T17:17:49.844Z,26.02
2018-09-19T17:20:19.214Z,25.87
2018-09-19T17:22:48.591Z,25.83
2018-09-19T17:25:18.051Z,25.68
2018-09-19T17:27:47.422Z,25.59
2018-09-19T17:30:16.868Z,25.58
2018-09-19T17:32:46.262Z,25.80
2018-09-19T17:35:15.671Z,25.42
2018-09-19T17:37:45.071Z,25.26
2018-09-19T17:40:14.443Z,25.10
2018-09-19T17:42:43.801Z,25.14
2018-09-19T17:45:13.193Z,24.98
2018-09-19T17:47:42.536Z,24.93
2018-09-19T17:50:12.016Z,25.11
2018-09-19T17:52:41.737Z,24.84
2018-09-19T17:55:11.151Z,24.90
2018-09-19T17:57:40.551Z,24.90
2018-09-19T18:00:10.955Z,24.68
2018-09-19T18:02:40.778Z,24.09
2018-09-19T18:05:10.212Z,23.78
2018-09-19T18:07:39.809Z,23.80
2018-09-19T18:10:09.297Z,23.86
2018-09-19T18:12:38.902Z,23.62
2018-09-19T18:15:08.691Z,23.91
2018-09-19T18:17:38.104Z,24.06
2018-09-19T18:20:07.632Z,23.84
2018-09-19T18:22:37.338Z,24.00
2018-09-19T18:25:07.075Z,24.16
2018-09-19T18:27:36.897Z,24.21
2018-09-19T18:30:06.570Z,24.24
2018-09-19T18:32:36.067Z,24.09
2018-09-19T18:35:05.586Z,24.10
2018-09-19T18:37:35.036Z,23.62
2018-09-19T18:40:04.449Z,23.46
2018-09-19T18:42:33.842Z,23.18
2018-09-19T18:45:03.235Z,23.07
2018-09-19T18:47:32.674Z,22.95
2018-09-19T18:50:02.089Z,23.10
2018-09-19T18:52:31.473Z,23.10
2018-09-19T18:55:00.882Z,23.40
2018-09-19T18:57:30.490Z,23.61
2018-09-19T19:00:00.040Z,23.60
2018-09-19T19:02:29.635Z,23.63
2018-09-19T19:04:59.212Z,23.75
2018-09-19T19:07:28.663Z,23.61
2018-09-19T19:09:58.107Z,23.62
2018-09-19T19:12:27.708Z,23.62
2018-09-19T19:14:57.261Z,23.54
2018-09-19T19:17:26.637Z,23.68
2018-09-19T19:19:56.035Z,23.67
2018-09-19T19:22:25.450Z,23.66
2018-09-19T19:24:54.957Z,23.57
2018-09-19T19:27:24.479Z,23.75
2018-09-19T19:29:54.195Z,23.52
2018-09-19T19:32:23.597Z,23.84
2018-09-19T19:34:53.048Z,23.89
2018-09-19T19:37:22.465Z,24.00
2018-09-19T19:39:51.890Z,24.18
2018-09-19T19:42:21.446Z,24.12
2018-09-19T19:44:51.124Z,24.18
2018-09-19T19:47:20.620Z,24.24
2018-09-19T19:49:50.229Z,24.32
2018-09-19T19:52:19.778Z,24.20
2018-09-19T19:54:49.295Z,24.12
2018-09-19T19:57:18.884Z,24.22
2018-09-19T19:59:48.477Z,24.15
2018-09-19T20:02:18.079Z,24.17
2018-09-19T20:04:47.619Z,23.96
2018-09-19T20:07:17.079Z,23.74
2018-09-19T20:09:46.531Z,23.65
2018-09-19T20:12:16.006Z,24.01
2018-09-19T20:14:45.413Z,24.01
2018-09-19T20:17:14.863Z,23.83
2018-09-19T20:19:44.866Z,23.79
2018-09-19T20:22:14.244Z,23.58
2018-09-19T20:24:43.614Z,23.72
2018-09-19T20:27:13.054Z,23.70
2018-09-19T20:29:42.475Z,23.45
2018-09-19T20:32:11.819Z,23.22
2018-09-19T20:34:41.192Z,23.32
2018-09-19T20:37:10.545Z,23.45
2018-09-19T20:39:39.898Z,23.50
2018-09-19T20:42:09.359Z,23.43
2018-09-19T20:44:38.762Z,23.27
2018-09-19T20:47:08.224Z,22.93
2018-09-19T20:49:37.592Z,22.86
2018-09-19T20:52:06.997Z,22.71
2018-09-19T20:54:37.146Z,23.06
2018-09-19T20:57:06.950Z,22.74
2018-09-19T20:59:36.350Z,23.03
2018-09-19T21:02:05.717Z,22.83
2018-09-19T21:04:35.168Z,22.89
2018-09-19T21:07:04.530Z,22.90
2018-09-19T21:09:33.899Z,23.11
2018-09-19T21:12:03.337Z,22.84
2018-09-19T21:14:32.706Z,22.65
2018-09-19T21:17:02.147Z,22.69
2018-09-19T21:19:31.505Z,22.65
2018-09-19T21:22:01.010Z,22.92
2018-09-19T21:24:30.324Z,22.71
2018-09-19T21:26:59.759Z,22.40
2018-09-19T21:29:29.102Z,22.46
2018-09-19T21:31:58.559Z,22.36
2018-09-19T21:34:27.996Z,22.09
2018-09-19T21:36:57.361Z,21.93
2018-09-19T21:39:26.715Z,21.78
2018-09-19T21:41:56.170Z,21.63
2018-09-19T21:44:25.513Z,21.48
2018-09-19T21:46:54.987Z,21.45
2018-09-19T21:49:24.359Z,21.27
2018-09-19T21:51:53.726Z,21.30
2018-09-19T21:54:23.194Z,21.26
2018-09-19T21:56:52.566Z,21.00
2018-09-19T21:59:21.981Z,21.00
2018-09-19T22:01:56.647Z,20.94
2018-09-19T22:04:26.157Z,20.69
2018-09-19T22:06:55.621Z,20.95
2018-09-19T22:09:25.033Z,20.89
2018-09-19T22:11:54.387Z,20.84
2018-09-19T22:14:23.819Z,20.66
2018-09-19T22:16:53.179Z,21.06
2018-09-19T22:19:22.622Z,20.75
2018-09-19T22:21:52.043Z,20.56
2018-09-19T22:24:21.426Z,20.68
2018-09-19T22:26:50.789Z,20.54
2018-09-19T22:29:20.263Z,20.44
2018-09-19T22:31:49.630Z,20.34
2018-09-19T22:34:19.043Z,20.26
2018-09-19T22:36:48.390Z,20.29
2018-09-19T22:39:17.745Z,20.31
2018-09-19T22:41:47.142Z,20.26
2018-09-19T22:44:16.523Z,20.19
2018-09-19T22:46:45.952Z,20.09
2018-09-19T22:49:15.321Z,20.12
2018-09-19T22:51:45.159Z,20.06
2018-09-19T22:54:14.591Z,20.03
2018-09-19T22:56:43.930Z,20.00
2018-09-19T22:59:13.376Z,19.97
2018-09-19T23:01:42.762Z,19.98
2018-09-19T23:04:12.193Z,19.98
2018-09-19T23:06:41.546Z,20.00
2018-09-19T23:09:10.982Z,20.00
2018-09-19T23:11:40.339Z,20.05
2018-09-19T23:14:09.789Z,20.14
2018-09-19T23:16:39.159Z,20.03
2018-09-19T23:19:08.602Z,20.00
2018-09-19T23:21:37.974Z,19.96
2018-09-19T23:24:07.330Z,19.82
2018-09-19T23:26:36.693Z,19.68
2018-09-19T23:29:06.244Z,19.70
2018-09-19T23:31:35.615Z,19.56
2018-09-19T23:34:05.024Z,19.53
2018-09-19T23:36:34.377Z,19.49
2018-09-19T23:39:04.422Z,19.45
2018-09-19T23:41:33.765Z,19.52
2018-09-19T23:44:03.238Z,19.61
2018-09-19T23:46:32.612Z,19.57
2018-09-19T23:49:02.044Z,19.38
2018-09-19T23:51:31.414Z,19.10
2018-09-19T23:54:00.782Z,19.11
2018-09-19T23:56:30.149Z,19.31
2018-09-19T23:58:59.563Z,19.49
